createdAt,value
2019-05-26T00:00:52.411Z,9.65
2019-05-26T00:03:22.209Z,8.28
2019-05-26T00:05:51.991Z,9.53
2019-05-26T00:08:21.819Z,8.88
2019-05-26T00:10:51.586Z,9.00
2019-05-26T00:13:21.503Z,8.85
2019-05-26T00:15:51.259Z,7.22
2019-05-26T00:18:21.075Z,8.58
2019-05-26T00:20:50.849Z,7.17
2019-05-26T00:23:20.643Z,9.33
2019-05-26T00:25:50.397Z,7.87
2019-05-26T00:28:20.215Z,8.60
2019-05-26T00:30:49.997Z,11.65
2019-05-26T00:33:19.784Z,8.75
2019-05-26T00:35:49.573Z,9.13
2019-05-26T00:38:19.376Z,11.28
2019-05-26T00:40:49.170Z,9.20
2019-05-26T00:43:18.986Z,9.98
2019-05-26T00:45:48.784Z,10.15
2019-05-26T00:48:18.604Z,12.35
2019-05-26T00:50:48.402Z,11.05
2019-05-26T00:53:18.196Z,9.50
2019-05-26T00:55:48.025Z,11.93
2019-05-26T00:58:17.832Z,10.03
2019-05-26T01:00:47.605Z,9.18
2019-05-26T01:03:17.499Z,10.65
2019-05-26T01:05:47.272Z,8.88
2019-05-26T01:08:17.187Z,9.80
2019-05-26T01:10:46.964Z,10.32
2019-05-26T01:13:16.753Z,9.30
2019-05-26T01:15:46.566Z,12.90
2019-05-26T01:18:16.342Z,11.03
2019-05-26T01:20:46.148Z,11.93
2019-05-26T01:23:15.917Z,12.35
2019-05-26T01:25:45.748Z,10.35
2019-05-26T01:28:15.518Z,10.15
2019-05-26T01:30:45.632Z,16.77
2019-05-26T01:33:15.502Z,16.45
2019-05-26T01:35:45.611Z,11.70
2019-05-26T01:38:23.624Z,13.55
2019-05-26T01:40:47.464Z,10.98
2019-05-26T01:43:17.222Z,13.53
2019-05-26T01:45:47.040Z,15.30
2019-05-26T01:48:16.800Z,13.25
2019-05-26T01:50:46.554Z,14.23
2019-05-26T01:53:16.363Z,12.68
2019-05-26T01:55:46.165Z,13.30
2019-05-26T01:58:15.980Z,12.50
2019-05-26T02:00:45.734Z,11.68
2019-05-26T02:03:15.566Z,10.95
2019-05-26T02:05:45.743Z,13.83
2019-05-26T02:08:15.583Z,13.05
2019-05-26T02:10:45.339Z,12.37
2019-05-26T02:13:15.121Z,11.78
2019-05-26T02:15:44.891Z,11.85
2019-05-26T02:18:14.720Z,13.18
2019-05-26T02:20:44.459Z,14.87
2019-05-26T02:23:14.252Z,16.23
2019-05-26T02:25:44.066Z,11.95
2019-05-26T02:28:13.841Z,15.58
2019-05-26T02:30:43.670Z,14.73
2019-05-26T02:33:13.428Z,14.43
2019-05-26T02:35:43.254Z,13.83
2019-05-26T02:38:13.002Z,13.78
2019-05-26T02:40:42.812Z,18.55
2019-05-26T02:43:12.783Z,15.05
2019-05-26T02:45:42.680Z,16.70
2019-05-26T02:48:12.455Z,15.38
2019-05-26T02:50:42.258Z,15.43
2019-05-26T02:53:12.034Z,16.12
2019-05-26T02:55:41.886Z,16.93
2019-05-26T02:58:11.657Z,19.85
2019-05-26T03:00:45.730Z,22.22
2019-05-26T03:03:16.931Z,15.85
2019-05-26T03:05:47.539Z,13.28
2019-05-26T03:08:17.845Z,12.60
2019-05-26T03:10:50.531Z,16.20
2019-05-26T03:13:20.319Z,16.50
2019-05-26T03:15:50.087Z,12.95
2019-05-26T03:18:19.894Z,17.73
2019-05-26T03:20:49.678Z,14.93
2019-05-26T03:23:19.592Z,15.43
2019-05-26T03:25:49.344Z,14.23
2019-05-26T03:28:19.100Z,16.77
2019-05-26T03:30:48.998Z,12.28
2019-05-26T03:33:18.787Z,13.78
2019-05-26T03:35:48.566Z,14.78
2019-05-26T03:38:18.405Z,15.75
2019-05-26T03:40:48.163Z,17.82
2019-05-26T03:43:17.942Z,13.13
2019-05-26T03:46:19.194Z,13.43
2019-05-26T03:48:49.749Z,13.43
2019-05-26T03:51:19.646Z,15.87
2019-05-26T03:53:49.480Z,13.98
2019-05-26T03:56:19.346Z,14.68
2019-05-26T03:58:49.115Z,18.37
2019-05-26T04:01:18.950Z,13.18
2019-05-26T04:03:48.719Z,14.20
2019-05-26T04:06:18.539Z,12.53
2019-05-26T04:08:48.288Z,14.05
2019-05-26T04:11:18.088Z,15.13
2019-05-26T04:13:47.887Z,13.88
2019-05-26T04:16:17.704Z,11.48
2019-05-26T04:18:47.469Z,13.68
2019-05-26T04:21:17.269Z,11.50
2019-05-26T04:23:47.036Z,13.43
2019-05-26T04:26:16.854Z,12.63
2019-05-26T04:28:47.022Z,10.13
2019-05-26T04:31:16.947Z,9.80
2019-05-26T04:33:46.688Z,10.78
2019-05-26T04:36:16.452Z,10.38
2019-05-26T04:38:46.270Z,9.53
2019-05-26T04:41:16.038Z,9.33
2019-05-26T04:43:45.847Z,13.70
2019-05-26T04:46:15.597Z,10.50
2019-05-26T04:48:45.387Z,10.58
2019-05-26T04:51:15.156Z,9.90
2019-05-26T04:53:44.945Z,12.68
2019-05-26T04:56:14.734Z,10.00
2019-05-26T04:58:44.651Z,9.90
2019-05-26T05:01:14.415Z,13.35
2019-05-26T05:03:44.231Z,13.72
2019-05-26T05:06:13.989Z,6.97
2019-05-26T05:08:43.804Z,10.82
2019-05-26T05:11:13.548Z,9.95
2019-05-26T05:13:43.363Z,12.00
2019-05-26T05:16:13.136Z,10.88
2019-05-26T05:18:42.927Z,8.63
2019-05-26T05:21:12.695Z,10.85
2019-05-26T05:23:42.502Z,11.88
2019-05-26T05:26:12.276Z,8.80
2019-05-26T05:28:42.159Z,9.60
2019-05-26T05:31:11.977Z,10.45
2019-05-26T05:33:41.720Z,9.83
2019-05-26T05:36:11.518Z,12.05
2019-05-26T05:38:41.269Z,9.83
2019-05-26T05:41:11.085Z,8.53
2019-05-26T05:43:40.862Z,12.23
2019-05-26T05:46:10.648Z,7.87
2019-05-26T05:48:40.519Z,6.92
2019-05-26T05:51:10.325Z,11.03
2019-05-26T05:53:40.119Z,11.15
2019-05-26T05:56:09.999Z,7.62
2019-05-26T05:58:39.849Z,10.98
2019-05-26T06:01:09.664Z,13.00
2019-05-26T06:03:39.461Z,10.15
2019-05-26T06:06:09.262Z,10.95
2019-05-26T06:08:39.024Z,8.48
2019-05-26T06:11:16.505Z,10.38
2019-05-26T06:13:40.260Z,10.80
2019-05-26T06:16:10.053Z,7.72
2019-05-26T06:18:39.819Z,7.40
2019-05-26T06:21:09.633Z,10.45
2019-05-26T06:23:39.399Z,7.92
2019-05-26T06:26:09.213Z,8.58
2019-05-26T06:28:38.968Z,9.70
2019-05-26T06:31:08.740Z,11.43
2019-05-26T06:33:38.529Z,9.30
2019-05-26T06:36:08.300Z,8.75
2019-05-26T06:38:38.157Z,9.75
2019-05-26T06:41:07.967Z,6.75
2019-05-26T06:43:37.768Z,10.90
2019-05-26T06:46:07.554Z,8.03
2019-05-26T06:48:37.391Z,10.90
2019-05-26T06:51:07.157Z,8.88
2019-05-26T06:53:37.630Z,12.03
2019-05-26T06:56:07.545Z,9.65
2019-05-26T06:58:37.327Z,9.13
2019-05-26T07:01:07.207Z,13.32
2019-05-26T07:03:36.976Z,6.58
2019-05-26T07:06:06.785Z,9.43
2019-05-26T07:08:36.536Z,10.88
2019-05-26T07:11:06.499Z,9.40
2019-05-26T07:13:36.254Z,8.10
2019-05-26T07:16:06.154Z,8.50
2019-05-26T07:18:35.904Z,9.90
2019-05-26T07:21:05.699Z,9.83
2019-05-26T07:23:35.465Z,9.88
2019-05-26T07:26:05.255Z,8.93
2019-05-26T07:28:35.069Z,11.83
2019-05-26T07:31:04.938Z,10.70
2019-05-26T07:33:34.961Z,11.28
2019-05-26T07:36:04.855Z,10.93
2019-05-26T07:38:34.669Z,8.08
2019-05-26T07:41:04.529Z,6.15
2019-05-26T07:43:34.382Z,5.78
2019-05-26T07:46:04.278Z,8.25
2019-05-26T07:48:36.019Z,11.08
2019-05-26T07:51:05.570Z,6.28
2019-05-26T07:53:35.345Z,5.25
2019-05-26T07:56:05.126Z,8.73
2019-05-26T07:58:34.972Z,8.63
2019-05-26T08:01:04.899Z,9.55
2019-05-26T08:03:34.654Z,8.03
2019-05-26T08:06:04.427Z,7.95
2019-05-26T08:08:34.553Z,9.50
2019-05-26T08:11:04.341Z,7.83
2019-05-26T08:13:34.257Z,7.67
2019-05-26T08:16:04.042Z,9.43
2019-05-26T08:18:34.837Z,10.20
2019-05-26T08:21:05.054Z,9.75
2019-05-26T08:23:35.075Z,8.43
2019-05-26T08:26:06.569Z,12.65
2019-05-26T08:28:38.203Z,10.08
2019-05-26T08:31:12.750Z,13.13
2019-05-26T08:33:42.526Z,7.08
2019-05-26T08:36:13.976Z,15.93
2019-05-26T08:38:45.912Z,9.48
2019-05-26T08:41:17.726Z,7.22
2019-05-26T08:43:49.854Z,8.10
2019-05-26T08:46:21.919Z,7.85
2019-05-26T08:48:54.024Z,8.93
2019-05-26T08:51:25.691Z,11.38
2019-05-26T08:53:57.976Z,8.95
2019-05-26T08:56:30.140Z,7.87
2019-05-26T08:59:01.883Z,8.40
2019-05-26T09:01:34.168Z,7.45
2019-05-26T09:04:06.334Z,11.18
2019-05-26T09:06:38.352Z,11.50
2019-05-26T09:09:10.814Z,10.20
2019-05-26T09:11:42.566Z,9.15
2019-05-26T09:14:14.427Z,9.95
2019-05-26T09:16:46.214Z,11.15
2019-05-26T09:19:17.217Z,7.35
2019-05-26T09:21:48.906Z,9.10
2019-05-26T09:24:20.411Z,13.38
2019-05-26T09:26:52.385Z,11.90
2019-05-26T09:29:23.979Z,13.32
2019-05-26T09:31:56.036Z,10.70
2019-05-26T09:34:27.784Z,11.95
2019-05-26T09:36:59.975Z,9.60
2019-05-26T09:39:32.136Z,8.23
2019-05-26T09:42:04.292Z,7.08
2019-05-26T09:44:36.442Z,8.25
2019-05-26T09:47:08.193Z,7.33
2019-05-26T09:49:40.470Z,7.87
2019-05-26T09:52:12.709Z,10.18
2019-05-26T09:54:44.912Z,6.50
2019-05-26T09:57:17.182Z,8.53
2019-05-26T09:59:49.112Z,7.30
2019-05-26T10:02:21.416Z,5.80
2019-05-26T10:04:53.306Z,11.75
2019-05-26T10:07:25.417Z,8.80
2019-05-26T10:09:57.572Z,8.03
2019-05-26T10:12:29.971Z,11.22
2019-05-26T10:15:02.175Z,11.70
2019-05-26T10:17:35.015Z,11.55
2019-05-26T10:20:07.886Z,11.03
2019-05-26T10:22:40.223Z,10.98
2019-05-26T10:25:14.092Z,12.60
2019-05-26T10:27:46.674Z,7.55
2019-05-26T10:30:19.133Z,10.65
2019-05-26T10:32:51.198Z,7.10
2019-05-26T10:35:23.389Z,11.03
2019-05-26T10:37:55.650Z,8.28
2019-05-26T10:40:28.871Z,6.05
2019-05-26T10:43:01.307Z,9.35
2019-05-26T10:45:34.608Z,10.10
2019-05-26T10:48:06.910Z,11.65
2019-05-26T10:50:41.799Z,8.00
2019-05-26T10:53:14.048Z,8.13
2019-05-26T10:55:46.424Z,6.15
2019-05-26T10:58:18.822Z,8.48
2019-05-26T11:00:51.033Z,11.80
2019-05-26T11:03:23.407Z,5.40
2019-05-26T11:05:57.256Z,7.15
2019-05-26T11:08:29.592Z,5.45
2019-05-26T11:11:04.969Z,7.90
2019-05-26T11:13:40.724Z,9.13
2019-05-26T11:16:12.312Z,4.95
2019-05-26T11:18:44.655Z,8.00
2019-05-26T11:21:16.888Z,8.80
2019-05-26T11:23:50.402Z,6.37
2019-05-26T11:26:23.073Z,5.00
2019-05-26T11:28:55.404Z,5.80
2019-05-26T11:31:27.659Z,6.70
2019-05-26T11:33:59.955Z,4.65
2019-05-26T11:36:32.193Z,5.62
2019-05-26T11:39:07.880Z,3.83
2019-05-26T11:41:40.895Z,5.37
2019-05-26T11:44:18.065Z,3.58
2019-05-26T11:46:48.500Z,3.87
2019-05-26T11:49:20.864Z,3.15
2019-05-26T11:51:52.918Z,6.80
2019-05-26T11:54:25.821Z,4.25
2019-05-26T11:56:59.409Z,5.72
2019-05-26T11:59:31.867Z,3.45
2019-05-26T12:02:04.111Z,5.00
2019-05-26T12:04:38.168Z,3.42
2019-05-26T12:07:10.545Z,4.90
2019-05-26T12:09:43.029Z,3.87
2019-05-26T12:12:15.188Z,3.72
2019-05-26T12:14:48.931Z,4.53
2019-05-26T12:17:22.163Z,6.00
2019-05-26T12:19:55.680Z,4.45
2019-05-26T12:22:27.941Z,4.40
2019-05-26T12:25:00.352Z,2.60
2019-05-26T12:27:33.206Z,2.55
2019-05-26T12:30:05.620Z,2.72
2019-05-26T12:32:38.008Z,2.40
2019-05-26T12:35:11.380Z,3.05
2019-05-26T12:37:44.073Z,2.87
2019-05-26T12:40:16.755Z,3.37
2019-05-26T12:42:48.980Z,3.50
2019-05-26T12:45:21.656Z,3.37
2019-05-26T12:47:54.403Z,3.75
2019-05-26T12:50:26.778Z,5.97
2019-05-26T12:52:59.061Z,5.42
2019-05-26T12:55:31.321Z,3.22
2019-05-26T12:58:04.419Z,4.22
2019-05-26T13:00:48.106Z,4.85
2019-05-26T13:03:10.577Z,3.58
2019-05-26T13:05:42.875Z,6.55
2019-05-26T13:08:17.911Z,3.75
2019-05-26T13:10:50.193Z,5.20
2019-05-26T13:13:22.499Z,4.75
2019-05-26T13:15:56.661Z,2.72
2019-05-26T13:18:29.085Z,3.72
2019-05-26T13:21:01.218Z,4.08
2019-05-26T13:23:37.282Z,3.77
2019-05-26T13:26:09.602Z,3.55
2019-05-26T13:28:41.817Z,3.85
2019-05-26T13:31:14.289Z,6.33
2019-05-26T13:33:46.560Z,3.72
2019-05-26T13:36:18.747Z,4.00
2019-05-26T13:38:50.886Z,3.30
2019-05-26T13:41:23.044Z,5.60
2019-05-26T13:43:54.995Z,3.55
2019-05-26T13:46:27.835Z,4.30
2019-05-26T13:49:00.138Z,3.77
2019-05-26T13:51:33.861Z,3.75
2019-05-26T13:54:05.834Z,3.70
2019-05-26T13:56:39.225Z,3.58
2019-05-26T13:59:11.226Z,2.67
2019-05-26T14:01:45.143Z,5.53
2019-05-26T14:04:17.507Z,4.53
2019-05-26T14:06:49.526Z,3.60
2019-05-26T14:09:21.755Z,3.92
2019-05-26T14:11:54.083Z,4.85
2019-05-26T14:14:27.049Z,2.40
2019-05-26T14:17:00.505Z,2.52
2019-05-26T14:19:33.113Z,3.27
2019-05-26T14:22:05.557Z,3.10
2019-05-26T14:24:50.865Z,2.22
2019-05-26T14:27:11.629Z,2.80
2019-05-26T14:29:43.768Z,2.22
2019-05-26T14:32:15.742Z,2.95
2019-05-26T14:34:48.085Z,5.50
2019-05-26T14:37:21.021Z,3.37
2019-05-26T14:39:53.417Z,2.95
2019-05-26T14:42:26.078Z,4.95
2019-05-26T14:44:59.037Z,2.22
2019-05-26T14:47:31.271Z,5.45
2019-05-26T14:50:06.540Z,2.37
2019-05-26T14:52:38.787Z,4.20
2019-05-26T14:55:11.689Z,3.33
2019-05-26T14:57:45.119Z,2.37
2019-05-26T15:00:19.115Z,3.85
2019-05-26T15:02:51.297Z,2.40
2019-05-26T15:05:23.718Z,3.60
2019-05-26T15:07:55.895Z,2.95
2019-05-26T15:10:28.229Z,2.60
2019-05-26T15:13:00.582Z,2.87
2019-05-26T15:15:35.127Z,3.30
2019-05-26T15:18:07.635Z,3.33
2019-05-26T15:20:40.593Z,3.77
2019-05-26T15:23:12.882Z,2.50
2019-05-26T15:25:46.168Z,2.92
2019-05-26T15:28:18.821Z,2.45
2019-05-26T15:30:51.072Z,1.70
2019-05-26T15:33:23.244Z,2.87
2019-05-26T15:35:55.307Z,2.17
2019-05-26T15:38:41.712Z,2.05
2019-05-26T15:41:01.103Z,2.10
2019-05-26T15:43:34.879Z,5.20
2019-05-26T15:46:23.873Z,2.50
2019-05-26T15:48:42.745Z,4.08
2019-05-26T15:51:14.694Z,2.67
2019-05-26T15:53:46.466Z,2.20
2019-05-26T15:56:17.188Z,2.72
2019-05-26T15:58:49.070Z,2.52
2019-05-26T16:01:21.196Z,2.60
2019-05-26T16:03:53.234Z,3.47
2019-05-26T16:06:25.305Z,4.12
2019-05-26T16:08:57.191Z,2.15
2019-05-26T16:11:29.567Z,3.08
2019-05-26T16:14:01.507Z,3.92
2019-05-26T16:16:41.100Z,3.55
2019-05-26T16:19:07.643Z,3.08
2019-05-26T16:21:41.194Z,3.52
2019-05-26T16:24:13.536Z,2.37
2019-05-26T16:26:45.876Z,3.25
2019-05-26T16:29:18.903Z,2.75
2019-05-26T16:31:51.544Z,2.55
2019-05-26T16:34:23.854Z,3.67
2019-05-26T16:36:56.237Z,2.70
2019-05-26T16:39:36.959Z,4.50
2019-05-26T16:42:09.709Z,2.75
2019-05-26T16:44:42.037Z,2.62
2019-05-26T16:47:14.552Z,2.77
2019-05-26T16:49:46.829Z,2.37
2019-05-26T16:52:19.187Z,2.70
2019-05-26T16:54:51.688Z,4.62
2019-05-26T16:57:25.423Z,2.75
2019-05-26T16:59:58.649Z,3.00
2019-05-26T17:02:32.690Z,2.72
2019-05-26T17:05:06.697Z,3.20
2019-05-26T17:07:40.273Z,3.50
2019-05-26T17:10:16.070Z,2.72
2019-05-26T17:12:49.724Z,3.40
2019-05-26T17:15:22.667Z,3.45
2019-05-26T17:17:56.129Z,4.37
2019-05-26T17:20:28.670Z,2.65
2019-05-26T17:23:01.399Z,4.95
2019-05-26T17:25:33.899Z,4.12
2019-05-26T17:28:07.655Z,3.98
2019-05-26T17:30:40.148Z,3.72
2019-05-26T17:33:12.611Z,3.77
2019-05-26T17:35:45.606Z,2.42
2019-05-26T17:38:20.517Z,2.67
2019-05-26T17:40:58.135Z,4.50
2019-05-26T17:43:30.597Z,4.58
2019-05-26T17:46:03.051Z,4.85
2019-05-26T17:48:35.934Z,3.67
2019-05-26T17:51:08.515Z,3.83
2019-05-26T17:53:40.909Z,2.75
2019-05-26T17:56:14.075Z,2.75
2019-05-26T17:58:48.168Z,4.83
2019-05-26T18:01:21.418Z,3.15
2019-05-26T18:03:56.324Z,4.53
2019-05-26T18:06:28.821Z,2.95
2019-05-26T18:09:01.961Z,3.72
2019-05-26T18:11:38.426Z,4.80
2019-05-26T18:14:10.875Z,2.87
2019-05-26T18:16:43.428Z,4.53
2019-05-26T18:19:17.555Z,5.03
2019-05-26T18:21:50.860Z,4.15
2019-05-26T18:24:27.401Z,4.62
2019-05-26T18:26:59.911Z,3.37
2019-05-26T18:29:32.768Z,2.98
2019-05-26T18:32:08.006Z,4.40
2019-05-26T18:34:43.133Z,3.70
2019-05-26T18:37:18.210Z,3.92
2019-05-26T18:39:50.698Z,4.72
2019-05-26T18:42:23.947Z,3.47
2019-05-26T18:44:58.185Z,5.72
2019-05-26T18:47:33.694Z,3.83
2019-05-26T18:50:08.552Z,4.67
2019-05-26T18:52:43.808Z,3.98
2019-05-26T18:55:19.704Z,6.42
2019-05-26T18:57:53.542Z,2.90
2019-05-26T19:00:31.006Z,3.10
2019-05-26T19:03:02.863Z,2.33
2019-05-26T19:05:40.879Z,4.17
2019-05-26T19:08:16.399Z,3.33
2019-05-26T19:10:48.833Z,5.47
2019-05-26T19:13:23.899Z,4.67
2019-05-26T19:15:57.817Z,4.30
2019-05-26T19:18:35.826Z,5.25
2019-05-26T19:21:09.101Z,3.22
2019-05-26T19:23:43.276Z,6.08
2019-05-26T19:26:17.834Z,3.12
2019-05-26T19:28:50.892Z,6.10
2019-05-26T19:31:23.891Z,3.65
2019-05-26T19:33:59.764Z,4.40
2019-05-26T19:36:33.431Z,4.30
2019-05-26T19:39:09.745Z,3.42
2019-05-26T19:41:45.900Z,3.83
2019-05-26T19:44:20.095Z,2.50
2019-05-26T19:46:53.143Z,3.50
2019-05-26T19:49:25.771Z,3.65
2019-05-26T19:52:01.797Z,2.52
2019-05-26T19:54:35.408Z,3.50
2019-05-26T19:57:08.124Z,4.70
2019-05-26T19:59:40.466Z,2.95
2019-05-26T20:02:18.294Z,4.37
2019-05-26T20:04:51.545Z,5.20
2019-05-26T20:07:26.196Z,3.08
2019-05-26T20:09:58.525Z,2.25
2019-05-26T20:12:31.017Z,4.10
2019-05-26T20:15:03.304Z,2.52
2019-05-26T20:17:35.767Z,2.85
2019-05-26T20:20:10.281Z,2.52
2019-05-26T20:22:42.925Z,2.65
2019-05-26T20:25:15.564Z,3.30
2019-05-26T20:27:47.994Z,2.40
2019-05-26T20:30:21.989Z,2.52
2019-05-26T20:32:57.812Z,4.87
2019-05-26T20:35:31.736Z,3.83
2019-05-26T20:38:04.181Z,2.60
2019-05-26T20:40:36.529Z,2.83
2019-05-26T20:43:08.842Z,3.50
2019-05-26T20:45:42.486Z,2.62
2019-05-26T20:48:14.870Z,3.25
2019-05-26T20:50:46.995Z,3.25
2019-05-26T20:53:19.353Z,2.92
2019-05-26T20:55:52.270Z,3.02
2019-05-26T20:58:24.890Z,5.97
2019-05-26T21:00:56.925Z,3.37
2019-05-26T21:03:29.277Z,3.62
2019-05-26T21:06:01.570Z,4.80
2019-05-26T21:08:33.731Z,3.17
2019-05-26T21:11:06.109Z,4.70
2019-05-26T21:13:38.256Z,4.75
2019-05-26T21:16:10.214Z,19.75
2019-05-26T21:18:42.169Z,3.47
2019-05-26T21:21:13.758Z,6.12
2019-05-26T21:23:45.451Z,4.10
2019-05-26T21:26:16.238Z,4.00
2019-05-26T21:28:46.587Z,3.30
2019-05-26T21:31:17.171Z,5.80
2019-05-26T21:33:46.989Z,3.30
2019-05-26T21:36:16.827Z,3.62
2019-05-26T21:38:46.585Z,3.35
2019-05-26T21:41:16.394Z,4.03
2019-05-26T21:43:46.170Z,4.78
2019-05-26T21:46:15.942Z,3.12
2019-05-26T21:48:45.727Z,4.10
2019-05-26T21:51:15.495Z,3.20
2019-05-26T21:53:45.294Z,3.25
2019-05-26T21:56:15.066Z,4.28
2019-05-26T21:58:44.851Z,5.75
2019-05-26T22:01:14.854Z,4.33
2019-05-26T22:03:44.619Z,4.62
2019-05-26T22:06:14.441Z,3.83
2019-05-26T22:08:44.195Z,3.50
2019-05-26T22:11:13.954Z,4.40
2019-05-26T22:13:43.744Z,3.72
2019-05-26T22:16:13.491Z,5.28
2019-05-26T22:18:43.290Z,5.17
2019-05-26T22:21:13.043Z,4.58
2019-05-26T22:23:42.864Z,3.08
2019-05-26T22:26:12.594Z,5.22
2019-05-26T22:28:42.342Z,6.90
2019-05-26T22:31:12.148Z,4.58
2019-05-26T22:33:41.935Z,3.47
2019-05-26T22:36:11.744Z,3.20
2019-05-26T22:38:41.504Z,3.77
2019-05-26T22:41:11.308Z,3.15
2019-05-26T22:43:41.071Z,6.40
2019-05-26T22:46:10.819Z,3.30
2019-05-26T22:48:40.626Z,3.62
2019-05-26T22:51:10.385Z,3.10
2019-05-26T22:53:40.159Z,4.53
2019-05-26T22:56:09.916Z,7.90
2019-05-26T22:58:39.711Z,3.80
2019-05-26T23:01:09.460Z,3.37
2019-05-26T23:03:39.263Z,3.33
2019-05-26T23:06:09.030Z,3.12
2019-05-26T23:08:38.772Z,3.27
2019-05-26T23:11:08.600Z,5.85
2019-05-26T23:13:38.359Z,7.05
2019-05-26T23:16:08.214Z,4.60
2019-05-26T23:18:37.965Z,4.20
2019-05-26T23:21:07.713Z,5.87
2019-05-26T23:23:37.511Z,3.42
2019-05-26T23:26:07.267Z,5.72
2019-05-26T23:28:37.057Z,3.80
2019-05-26T23:31:06.854Z,3.58
2019-05-26T23:33:36.692Z,3.00
2019-05-26T23:36:06.474Z,3.25
2019-05-26T23:38:36.246Z,3.20
2019-05-26T23:41:06.025Z,3.87
2019-05-26T23:43:35.828Z,2.77
2019-05-26T23:46:05.679Z,4.42
2019-05-26T23:48:35.465Z,3.20
2019-05-26T23:51:05.232Z,4.42
2019-05-26T23:53:35.017Z,3.83
2019-05-26T23:56:04.811Z,4.37
2019-05-26T23:58:34.617Z,3.10
